Time;durP1;ratioP1;P1;durP2;ratioP2;P2;SDS_P1;SDS_P2;PMS_P1;PMS_P2;Temp;Humidity;BMP_temperature;BMP_pressure;BME280_temperature;BME280_humidity;BME280_pressure;Samples;Min_cycle;Max_cycle;Signal;HPM_P1;HPM_P2
2022/08/03 00:00:38;;;;;;;3.20;2.20;;;24.70;78.50;;;;;;4993127;28;20640;-82
2022/08/03 00:03:05;;;;;;;2.57;1.90;;;24.70;78.80;;;;;;4992338;28;20785;-82
2022/08/03 00:05:32;;;;;;;4.40;1.80;;;24.70;79.20;;;;;;4976822;28;21122;-81
2022/08/03 00:08:01;;;;;;;2.20;1.70;;;24.70;79.40;;;;;;4992064;28;20683;-83
2022/08/03 00:10:27;;;;;;;4.33;1.93;;;24.70;79.70;;;;;;4992805;28;20579;-83
2022/08/03 00:12:53;;;;;;;4.20;1.90;;;24.70;79.90;;;;;;4980137;28;20595;-81
2022/08/03 00:15:19;;;;;;;2.53;2.00;;;24.70;80.20;;;;;;4983335;28;20586;-80
2022/08/03 00:17:45;;;;;;;3.73;1.87;;;24.70;80.40;;;;;;4993026;28;20582;-81
2022/08/03 00:20:11;;;;;;;3.37;1.90;;;24.70;80.80;;;;;;4987532;28;20594;-83
2022/08/03 00:22:37;;;;;;;3.13;2.10;;;24.70;81.00;;;;;;4977100;28;20212;-82
2022/08/03 00:25:03;;;;;;;4.23;2.20;;;24.60;81.30;;;;;;4992311;28;20676;-83
2022/08/03 00:27:29;;;;;;;2.27;1.60;;;24.60;81.70;;;;;;4992900;28;20584;-83
2022/08/03 00:29:54;;;;;;;4.60;1.70;;;24.60;82.00;;;;;;4992768;28;20661;-81
2022/08/03 00:32:20;;;;;;;5.10;2.50;;;24.50;82.10;;;;;;4975401;28;20171;-82
2022/08/03 00:34:46;;;;;;;2.80;1.90;;;24.50;82.50;;;;;;4992364;28;20201;-81
2022/08/03 00:37:11;;;;;;;5.63;1.80;;;24.50;82.80;;;;;;4943266;28;20179;-81
2022/08/03 00:39:37;;;;;;;4.60;1.63;;;24.50;83.20;;;;;;4992633;28;20194;-81
2022/08/03 00:42:04;;;;;;;4.30;1.83;;;24.40;83.50;;;;;;4975523;28;20182;-82
2022/08/03 00:44:30;;;;;;;2.70;1.77;;;24.40;83.90;;;;;;4976288;28;20625;-82
2022/08/03 00:46:56;;;;;;;3.73;1.97;;;24.30;84.10;;;;;;4992336;28;20598;-81
2022/08/03 00:49:22;;;;;;;5.40;2.03;;;24.30;84.60;;;;;;4992618;28;20571;-82
2022/08/03 00:51:48;;;;;;;4.20;2.07;;;24.30;85.10;;;;;;4992814;28;20964;-81
2022/08/03 00:54:14;;;;;;;2.77;1.50;;;24.20;85.40;;;;;;4992305;28;20641;-82
2022/08/03 00:56:42;;;;;;;2.87;1.80;;;24.20;85.80;;;;;;4992341;28;20170;-82
2022/08/03 00:59:09;;;;;;;3.10;1.70;;;24.20;86.30;;;;;;4975265;28;20957;-82
2022/08/03 01:01:35;;;;;;;4.47;2.10;;;24.10;86.70;;;;;;4992487;28;20577;-82
2022/08/03 01:04:01;;;;;;;2.43;1.80;;;24.10;87.10;;;;;;4974795;28;21216;-82
2022/08/03 01:06:42;;;;;;;2.20;1.60;;;24.00;87.60;;;;;;4991883;28;20575;-82
2022/08/03 01:09:39;;;;;;;2.20;1.53;;;24.00;88.30;;;;;;4975106;28;20931;-83
2022/08/03 01:12:27;;;;;;;2.13;1.40;;;23.90;88.70;;;;;;4974898;28;20745;-83
2022/08/03 01:15:10;;;;;;;3.30;1.90;;;23.90;89.00;;;;;;4994769;28;20606;-83
2022/08/03 01:17:45;;;;;;;3.60;1.60;;;23.90;89.60;;;;;;4978807;28;20568;-82
2022/08/03 01:20:13;;;;;;;3.50;1.83;;;23.80;89.70;;;;;;4980703;28;20597;-77
2022/08/03 01:22:44;;;;;;;3.50;2.00;;;23.80;89.90;;;;;;4978475;28;20652;-77
2022/08/03 01:25:35;;;;;;;3.73;2.13;;;23.80;90.10;;;;;;4977978;28;20960;-78
2022/08/03 01:28:15;;;;;;;2.57;1.30;;;23.70;90.40;;;;;;4995651;28;20617;-77
2022/08/03 01:30:44;;;;;;;5.00;2.00;;;23.70;90.60;;;;;;4995527;28;20570;-77
2022/08/03 01:33:18;;;;;;;2.50;1.50;;;23.70;90.60;;;;;;4978152;28;20605;-77
2022/08/03 01:35:53;;;;;;;2.13;1.60;;;23.60;91.00;;;;;;4995164;28;20569;-76
2022/08/03 01:38:41;;;;;;;2.27;1.53;;;23.60;91.00;;;;;;4978276;28;20572;-77
2022/08/03 01:41:12;;;;;;;2.20;1.73;;;23.60;91.40;;;;;;4995435;28;20632;-78
2022/08/03 01:43:41;;;;;;;2.30;1.40;;;23.60;91.40;;;;;;4995096;28;20641;-78
2022/08/03 01:46:08;;;;;;;2.53;1.83;;;23.60;91.60;;;;;;4977736;28;20628;-78
2022/08/03 01:48:38;;;;;;;2.93;2.33;;;23.50;91.80;;;;;;4961994;28;20589;-78
2022/08/03 01:51:06;;;;;;;5.90;2.40;;;23.50;92.00;;;;;;4977862;28;20574;-79
2022/08/03 01:53:33;;;;;;;4.07;2.10;;;23.50;92.10;;;;;;4995172;28;20677;-77
2022/08/03 01:56:02;;;;;;;3.40;2.03;;;23.50;92.40;;;;;;4995993;28;20566;-79
2022/08/03 01:58:29;;;;;;;2.10;1.50;;;23.50;92.70;;;;;;4995267;28;20578;-81
2022/08/03 02:01:00;;;;;;;2.03;1.50;;;23.40;92.80;;;;;;4977703;28;20578;-78
2022/08/03 02:03:28;;;;;;;2.43;1.40;;;23.40;93.00;;;;;;4977684;28;20636;-78
2022/08/03 02:05:57;;;;;;;3.10;2.20;;;23.40;93.20;;;;;;4977294;28;20562;-78
2022/08/03 02:08:25;;;;;;;2.47;1.30;;;23.40;93.40;;;;;;4961331;28;20566;-78
2022/08/03 02:10:53;;;;;;;2.57;1.50;;;23.40;93.60;;;;;;4977598;28;20624;-78
2022/08/03 02:13:20;;;;;;;3.23;1.77;;;23.40;93.70;;;;;;4994766;28;21018;-78
2022/08/03 02:15:48;;;;;;;2.90;1.50;;;23.40;93.90;;;;;;4994755;28;20566;-78
2022/08/03 02:18:14;;;;;;;4.03;1.63;;;23.40;94.00;;;;;;4994834;28;20903;-78
2022/08/03 02:20:42;;;;;;;2.40;1.40;;;23.40;94.70;;;;;;4994967;28;20674;-78
2022/08/03 02:23:08;;;;;;;2.33;1.63;;;23.30;94.40;;;;;;4994672;28;20668;-78
2022/08/03 02:25:40;;;;;;;2.57;1.53;;;23.30;94.50;;;;;;4975839;28;20661;-79
2022/08/03 02:28:15;;;;;;;2.30;1.30;;;23.30;95.00;;;;;;4994810;28;20620;-79
2022/08/03 02:30:44;;;;;;;4.23;1.30;;;23.30;95.00;;;;;;4994822;28;20561;-78
2022/08/03 02:33:17;;;;;;;3.60;2.20;;;23.30;95.40;;;;;;4979088;28;20678;-77
2022/08/03 02:35:43;;;;;;;2.50;1.20;;;23.20;95.70;;;;;;4994218;28;20581;-78
2022/08/03 02:38:12;;;;;;;2.27;1.57;;;23.20;95.70;;;;;;4994257;28;20922;-78
2022/08/03 02:40:40;;;;;;;2.13;1.37;;;23.20;95.80;;;;;;4976852;28;20575;-77
2022/08/03 02:43:10;;;;;;;2.40;1.67;;;23.20;96.00;;;;;;4976602;28;20644;-77
2022/08/03 02:45:42;;;;;;;4.50;1.40;;;23.20;96.20;;;;;;4994012;28;20927;-78
2022/08/03 02:48:11;;;;;;;1.63;1.30;;;23.10;96.40;;;;;;4976622;28;20916;-78
2022/08/03 02:50:38;;;;;;;1.87;1.53;;;23.20;96.50;;;;;;4994298;28;20563;-78
2022/08/03 02:53:05;;;;;;;3.10;1.40;;;23.10;96.60;;;;;;4994230;28;20574;-77
2022/08/03 02:55:34;;;;;;;2.60;1.70;;;23.10;97.30;;;;;;4994008;28;20949;-77
2022/08/03 02:58:01;;;;;;;2.03;1.40;;;23.10;97.40;;;;;;4994184;28;20577;-77
2022/08/03 03:00:30;;;;;;;2.20;1.60;;;23.00;97.40;;;;;;4994274;28;20574;-77
2022/08/03 03:02:57;;;;;;;2.03;1.83;;;23.00;97.60;;;;;;4976531;28;20622;-77
2022/08/03 03:05:24;;;;;;;1.93;1.67;;;23.00;97.80;;;;;;4976336;28;20570;-77
2022/08/03 03:07:50;;;;;;;4.03;1.73;;;23.00;97.90;;;;;;4960359;28;20578;-78
2022/08/03 03:10:16;;;;;;;3.13;2.03;;;22.90;98.10;;;;;;4977237;28;20566;-77
2022/08/03 03:12:43;;;;;;;2.20;1.43;;;22.90;98.30;;;;;;4993757;28;20581;-77
2022/08/03 03:15:09;;;;;;;2.30;1.73;;;22.90;98.40;;;;;;4975894;28;20320;-78
2022/08/03 03:17:37;;;;;;;2.97;1.70;;;22.80;98.60;;;;;;4976202;28;20989;-78
2022/08/03 03:20:05;;;;;;;1.83;1.40;;;22.80;98.80;;;;;;4993683;28;20581;-79
2022/08/03 03:22:32;;;;;;;2.67;1.77;;;22.80;99.00;;;;;;4993556;28;20614;-79
2022/08/03 03:24:59;;;;;;;1.70;1.37;;;22.70;99.30;;;;;;4975588;28;20625;-78
2022/08/03 03:27:25;;;;;;;2.30;1.70;;;22.70;99.50;;;;;;4993477;28;20559;-77
2022/08/03 03:29:51;;;;;;;2.80;1.73;;;22.70;99.50;;;;;;4993549;28;20570;-78
2022/08/03 03:32:17;;;;;;;2.50;1.77;;;22.70;99.60;;;;;;4993533;28;20938;-78
2022/08/03 03:34:43;;;;;;;3.30;1.93;;;22.70;99.80;;;;;;4992680;28;20606;-78
2022/08/03 03:37:09;;;;;;;3.33;1.47;;;22.70;99.90;;;;;;4992886;28;20566;-78
2022/08/03 03:39:35;;;;;;;2.50;2.10;;;22.70;99.90;;;;;;4992783;28;20654;-78
2022/08/03 03:42:02;;;;;;;2.10;1.80;;;22.60;99.90;;;;;;4992902;28;20657;-77
2022/08/03 03:44:28;;;;;;;1.70;1.43;;;22.60;99.90;;;;;;4992983;28;20645;-78
2022/08/03 03:46:56;;;;;;;2.57;1.30;;;22.60;99.90;;;;;;4978015;28;21110;-78
2022/08/03 03:49:22;;;;;;;2.33;1.93;;;22.60;99.90;;;;;;4975786;28;20586;-78
2022/08/03 03:51:51;;;;;;;3.00;2.10;;;22.60;99.90;;;;;;4993153;28;20576;-78
2022/08/03 03:54:17;;;;;;;2.63;1.70;;;22.50;99.90;;;;;;4992780;28;20605;-78
2022/08/03 03:56:44;;;;;;;2.67;1.83;;;22.40;99.90;;;;;;4992696;28;20570;-78
2022/08/03 03:59:09;;;;;;;2.40;1.63;;;22.40;99.90;;;;;;4992890;28;21153;-78
2022/08/03 04:01:36;;;;;;;2.10;1.70;;;22.40;99.90;;;;;;4975471;28;20198;-79
2022/08/03 04:10:57;;;;;;;2.33;1.67;;;22.40;99.90;;;;;;4992784;28;20562;-79
2022/08/03 04:12:23;;;;;;;2.83;1.70;;;22.40;99.90;;;;;;4992748;28;20631;-78
2022/08/03 04:14:53;;;;;;;2.20;1.50;;;22.40;99.90;;;;;;4974884;28;20590;-78
2022/08/03 04:17:19;;;;;;;2.20;1.87;;;22.40;99.90;;;;;;4992920;28;20551;-78
2022/08/03 04:19:51;;;;;;;3.50;2.10;;;22.40;99.90;;;;;;4993504;28;20562;-78
2022/08/03 04:22:21;;;;;;;3.07;1.70;;;22.40;99.90;;;;;;4977599;28;20578;-77
2022/08/03 04:24:56;;;;;;;1.90;1.50;;;22.40;99.90;;;;;;4957055;28;20976;-77
2022/08/03 04:27:26;;;;;;;2.00;1.50;;;22.40;99.90;;;;;;4990777;28;20581;-77
2022/08/03 04:29:54;;;;;;;2.27;1.43;;;22.40;99.90;;;;;;4990708;28;20833;-77
2022/08/03 04:32:24;;;;;;;2.20;1.50;;;22.40;99.90;;;;;;4973269;28;20565;-76
2022/08/03 04:34:51;;;;;;;5.50;1.57;;;22.40;99.90;;;;;;4972729;28;20610;-77
2022/08/03 04:37:31;;;;;;;2.30;1.50;;;22.40;99.90;;;;;;4991101;28;21149;-76
2022/08/03 04:40:00;;;;;;;3.17;1.80;;;22.40;99.90;;;;;;4992302;28;20573;-79
2022/08/03 04:42:29;;;;;;;2.30;1.70;;;22.40;99.90;;;;;;4992228;28;20573;-78
2022/08/03 04:44:56;;;;;;;2.30;1.80;;;22.40;99.90;;;;;;4991579;28;20640;-80
2022/08/03 04:47:23;;;;;;;2.40;1.97;;;22.50;99.90;;;;;;4992406;28;20633;-77
2022/08/03 04:49:49;;;;;;;1.90;1.40;;;22.50;99.90;;;;;;4942318;28;20582;-77
2022/08/03 04:52:15;;;;;;;2.90;1.53;;;22.50;99.90;;;;;;4975047;28;20570;-77
2022/08/03 04:54:44;;;;;;;3.73;2.23;;;22.50;99.90;;;;;;4991350;28;20598;-77
2022/08/03 04:57:11;;;;;;;2.77;1.63;;;22.50;99.90;;;;;;4992364;28;20668;-77
2022/08/03 04:59:37;;;;;;;2.47;1.80;;;22.50;99.90;;;;;;4994338;28;20666;-77
2022/08/03 05:02:03;;;;;;;2.23;1.50;;;22.60;99.90;;;;;;4958925;28;21025;-77
2022/08/03 05:04:29;;;;;;;2.20;1.87;;;22.60;99.90;;;;;;4991859;28;20725;-77
2022/08/03 05:06:55;;;;;;;2.00;1.40;;;22.60;99.90;;;;;;4991826;28;20570;-78
2022/08/03 05:09:21;;;;;;;2.97;1.80;;;22.50;99.90;;;;;;4974772;28;20914;-77
2022/08/03 05:11:47;;;;;;;3.40;1.60;;;22.50;99.90;;;;;;4992190;28;20202;-77
2022/08/03 05:14:13;;;;;;;3.07;1.67;;;22.60;99.90;;;;;;4958502;28;20638;-77
2022/08/03 05:16:39;;;;;;;4.20;2.13;;;22.60;99.90;;;;;;4991780;28;20629;-78
2022/08/03 05:19:04;;;;;;;1.70;1.47;;;22.60;99.90;;;;;;4992008;28;20175;-77
2022/08/03 05:21:30;;;;;;;3.93;2.00;;;22.60;99.90;;;;;;4974600;28;20171;-77
2022/08/03 05:23:56;;;;;;;4.50;1.97;;;22.60;99.90;;;;;;4991645;28;20741;-78
2022/08/03 05:26:22;;;;;;;2.53;1.80;;;22.60;99.90;;;;;;4958324;28;20629;-78
2022/08/03 05:28:48;;;;;;;2.00;1.80;;;22.70;99.90;;;;;;4991998;28;20178;-78
2022/08/03 05:31:13;;;;;;;2.33;1.73;;;22.70;99.90;;;;;;4974640;28;20233;-78
2022/08/03 05:33:39;;;;;;;2.57;1.70;;;22.70;99.90;;;;;;4992141;28;20667;-77
2022/08/03 05:36:05;;;;;;;2.47;1.80;;;22.80;99.90;;;;;;4974328;28;20562;-77
2022/08/03 05:38:31;;;;;;;2.37;1.47;;;22.80;99.90;;;;;;4974197;28;20574;-76
2022/08/03 05:40:57;;;;;;;2.87;2.30;;;22.90;99.90;;;;;;4991747;28;20171;-77
2022/08/03 05:43:23;;;;;;;2.60;1.53;;;22.90;99.90;;;;;;4991588;28;20992;-77
2022/08/03 05:45:49;;;;;;;1.73;1.47;;;23.00;99.90;;;;;;4991496;28;20562;-77
2022/08/03 05:48:15;;;;;;;4.07;2.67;;;23.00;99.90;;;;;;4991780;28;20658;-77
2022/08/03 05:50:41;;;;;;;2.30;1.40;;;23.10;99.90;;;;;;4991838;28;20213;-77
2022/08/03 05:53:06;;;;;;;2.97;2.00;;;23.20;99.90;;;;;;4991609;28;20544;-77
2022/08/03 05:55:32;;;;;;;3.50;2.60;;;23.30;99.90;;;;;;4957877;28;20500;-76
2022/08/03 05:57:58;;;;;;;3.13;2.20;;;23.50;99.90;;;;;;4991587;28;20550;-76
2022/08/03 06:00:24;;;;;;;6.20;2.70;;;23.70;99.90;;;;;;4992232;28;20171;-76
2022/08/03 06:02:50;;;;;;;4.30;1.80;;;24.20;99.90;;;;;;4977500;28;20207;-76
2022/08/03 06:05:15;;;;;;;4.00;2.27;;;24.90;99.90;;;;;;4977306;28;20179;-76
2022/08/03 06:07:41;;;;;;;6.43;1.87;;;25.70;99.90;;;;;;4994733;28;20562;-78
2022/08/03 06:10:07;;;;;;;4.23;2.20;;;26.50;99.90;;;;;;4992224;28;20175;-76
2022/08/03 06:12:34;;;;;;;4.70;1.77;;;27.50;99.90;;;;;;4964646;28;20580;-76
2022/08/03 06:15:02;;;;;;;2.80;1.60;;;28.50;99.90;;;;;;4976680;28;20594;-77
2022/08/03 06:17:28;;;;;;;7.23;1.87;;;29.40;99.90;;;;;;4976824;28;20673;-76
2022/08/03 06:19:54;;;;;;;2.27;1.50;;;30.30;99.90;;;;;;4991618;28;20763;-77
2022/08/03 06:22:20;;;;;;;3.17;1.53;;;31.20;99.70;;;;;;4970404;28;20180;-76
2022/08/03 06:24:45;;;;;;;2.70;1.63;;;32.10;98.30;;;;;;4989458;28;20193;-77
2022/08/03 06:27:11;;;;;;;4.97;2.00;;;33.10;96.50;;;;;;4991918;28;20177;-76
2022/08/03 06:29:37;;;;;;;2.90;1.70;;;33.80;94.20;;;;;;4976817;28;20205;-76
2022/08/03 06:32:03;;;;;;;2.60;1.57;;;34.20;92.20;;;;;;4994411;28;20258;-76
2022/08/03 06:34:29;;;;;;;2.47;1.20;;;34.60;90.00;;;;;;4994002;28;20202;-78
2022/08/03 06:36:55;;;;;;;3.03;1.43;;;34.90;88.50;;;;;;4960656;28;20585;-77
2022/08/03 06:39:23;;;;;;;2.93;1.20;;;35.30;86.20;;;;;;4981045;28;20234;-79
2022/08/03 06:41:49;;;;;;;2.77;1.30;;;35.60;82.90;;;;;;4957143;28;20180;-78
2022/08/03 06:44:16;;;;;;;1.90;1.10;;;36.10;81.20;;;;;;4941203;28;20640;-78
2022/08/03 06:46:42;;;;;;;2.73;1.30;;;36.40;76.20;;;;;;4974193;28;21009;-78
2022/08/03 06:49:09;;;;;;;5.60;1.60;;;36.60;74.30;;;;;;4958515;28;20246;-78
2022/08/03 06:51:35;;;;;;;2.30;1.40;;;37.00;71.90;;;;;;4974785;28;20168;-79
2022/08/03 06:54:01;;;;;;;2.03;1.50;;;37.40;70.40;;;;;;4960066;28;20669;-78
2022/08/03 06:56:26;;;;;;;6.80;1.73;;;37.80;67.80;;;;;;4993175;28;20177;-78
2022/08/03 06:58:52;;;;;;;2.33;1.40;;;38.10;65.80;;;;;;4983716;28;20579;-79
2022/08/03 07:01:18;;;;;;;2.27;1.30;;;38.20;63.20;;;;;;4956940;28;20642;-78
2022/08/03 07:03:44;;;;;;;2.73;1.33;;;38.40;61.40;;;;;;4956910;28;20207;-77
2022/08/03 07:06:09;;;;;;;1.93;1.20;;;38.80;60.40;;;;;;4974121;28;20171;-78
2022/08/03 07:08:36;;;;;;;4.40;1.90;;;39.10;58.60;;;;;;4974037;28;20198;-80
2022/08/03 07:11:02;;;;;;;1.70;1.10;;;39.20;57.90;;;;;;4956866;28;20229;-80
2022/08/03 07:13:27;;;;;;;4.33;1.20;;;39.30;56.20;;;;;;4963131;28;20615;-83
2022/08/03 07:15:53;;;;;;;2.37;1.27;;;39.70;56.10;;;;;;4981932;28;20614;-84
2022/08/03 07:18:19;;;;;;;3.67;1.37;;;40.00;54.80;;;;;;4984679;28;20171;-80
2022/08/03 07:20:45;;;;;;;3.50;1.33;;;40.20;53.40;;;;;;4989768;28;20176;-82
2022/08/03 07:23:10;;;;;;;2.00;1.20;;;40.60;53.00;;;;;;4985569;28;20241;-83
2022/08/03 07:25:36;;;;;;;3.17;1.33;;;40.80;52.50;;;;;;4986330;28;20175;-83
2022/08/03 07:28:02;;;;;;;3.77;1.50;;;41.00;51.70;;;;;;4987248;28;20176;-82
2022/08/03 07:30:28;;;;;;;1.60;0.90;;;41.30;50.70;;;;;;4982003;28;20168;-81
2022/08/03 07:32:54;;;;;;;2.83;1.10;;;41.20;49.30;;;;;;4962528;28;20582;-82
2022/08/03 07:35:21;;;;;;;4.23;1.13;;;41.10;48.70;;;;;;4975810;28;20182;-78
2022/08/03 07:37:47;;;;;;;2.97;1.30;;;41.20;48.30;;;;;;4940104;28;20179;-78
2022/08/03 07:40:13;;;;;;;1.70;1.10;;;41.30;48.10;;;;;;4981817;28;21232;-78
2022/08/03 07:42:38;;;;;;;3.23;1.50;;;41.50;47.60;;;;;;4993017;28;20207;-76
2022/08/03 07:45:05;;;;;;;2.60;1.10;;;41.70;47.20;;;;;;4992624;28;20570;-76
2022/08/03 07:47:31;;;;;;;2.33;1.10;;;42.00;47.00;;;;;;4959582;28;20758;-76
2022/08/03 07:49:57;;;;;;;3.53;1.27;;;42.40;46.30;;;;;;4992867;28;20746;-76
2022/08/03 07:55:08;;;;;;;3.23;1.80;;;42.90;45.70;;;;;;4992599;28;20612;-74
2022/08/03 07:57:35;;;;;;;2.10;1.23;;;43.20;44.80;;;;;;4992980;28;20578;-76
2022/08/03 08:00:02;;;;;;;3.47;1.30;;;43.30;43.60;;;;;;4992696;28;20574;-77
2022/08/03 08:02:37;;;;;;;4.47;1.20;;;43.40;42.90;;;;;;4996072;28;20613;-77
2022/08/03 08:05:04;;;;;;;3.30;1.03;;;43.60;43.00;;;;;;4992928;28;20597;-76
2022/08/03 08:07:29;;;;;;;2.50;1.00;;;43.90;43.20;;;;;;4993161;28;20179;-74
2022/08/03 08:09:56;;;;;;;4.07;1.10;;;44.10;42.30;;;;;;4992908;28;20558;-74
2022/08/03 08:12:22;;;;;;;2.20;1.53;;;44.10;42.20;;;;;;4992941;28;20600;-73
2022/08/03 08:14:47;;;;;;;1.63;1.07;;;44.20;41.80;;;;;;4992612;28;20602;-75
2022/08/03 08:17:13;;;;;;;2.10;1.30;;;44.20;40.70;;;;;;4975361;28;20175;-74
2022/08/03 08:19:39;;;;;;;1.70;1.03;;;44.20;40.50;;;;;;4989834;28;20229;-75
2022/08/03 08:22:08;;;;;;;3.83;0.90;;;44.10;39.80;;;;;;4956155;28;20563;-74
2022/08/03 08:24:34;;;;;;;3.10;1.30;;;44.10;39.90;;;;;;4987407;28;20210;-74
2022/08/03 08:27:02;;;;;;;2.73;1.23;;;44.20;39.90;;;;;;4974865;28;20577;-74
2022/08/03 08:29:28;;;;;;;2.20;0.80;;;44.30;39.30;;;;;;4975431;28;20175;-74
2022/08/03 08:31:54;;;;;;;1.80;1.10;;;44.40;39.50;;;;;;4992427;28;20905;-74
2022/08/03 08:34:19;;;;;;;2.27;0.80;;;44.50;39.20;;;;;;4974613;28;20220;-74
2022/08/03 08:36:45;;;;;;;2.20;1.00;;;44.60;38.80;;;;;;4992334;28;20175;-74
2022/08/03 08:39:11;;;;;;;2.50;1.03;;;44.80;38.80;;;;;;4961647;28;20582;-75
2022/08/03 08:41:37;;;;;;;3.07;1.20;;;44.90;38.30;;;;;;4992473;28;20177;-76
2022/08/03 08:44:03;;;;;;;2.60;1.10;;;44.70;36.80;;;;;;4992014;28;20241;-76
2022/08/03 08:46:32;;;;;;;4.47;1.10;;;44.50;36.90;;;;;;4991075;28;20581;-76
2022/08/03 08:48:58;;;;;;;3.50;0.90;;;44.50;36.80;;;;;;4992583;28;20566;-76
2022/08/03 08:51:29;;;;;;;2.37;0.87;;;44.50;36.90;;;;;;4993285;28;20554;-75
2022/08/03 08:53:56;;;;;;;1.60;0.90;;;44.60;37.40;;;;;;4992249;28;20632;-76
2022/08/03 08:56:24;;;;;;;1.50;0.97;;;44.60;36.60;;;;;;4958142;28;21138;-76
2022/08/03 08:59:01;;;;;;;1.90;0.90;;;44.70;35.90;;;;;;4974913;28;20566;-75
2022/08/03 09:01:27;;;;;;;1.47;1.00;;;44.50;35.80;;;;;;4944854;28;20677;-76
2022/08/03 09:03:53;;;;;;;1.60;0.90;;;44.70;36.30;;;;;;4955319;28;20638;-75
2022/08/03 09:06:21;;;;;;;7.10;0.90;;;44.90;36.70;;;;;;4972184;28;20563;-76
2022/08/03 09:08:47;;;;;;;3.13;1.03;;;45.00;35.70;;;;;;4939155;28;20594;-75
2022/08/03 09:11:12;;;;;;;4.13;0.90;;;45.20;35.70;;;;;;4972730;28;20559;-75
2022/08/03 09:13:39;;;;;;;2.53;1.00;;;45.40;35.90;;;;;;4955429;28;20610;-75
2022/08/03 09:16:13;;;;;;;1.80;0.73;;;45.70;35.30;;;;;;4955516;28;20567;-76
2022/08/03 09:18:40;;;;;;;1.60;0.90;;;45.80;35.20;;;;;;4972826;28;20540;-75
2022/08/03 09:21:13;;;;;;;2.73;1.00;;;46.00;35.40;;;;;;4955286;28;20578;-75
2022/08/03 09:23:51;;;;;;;6.60;1.10;;;46.10;34.00;;;;;;4954942;28;21003;-75
2022/08/03 09:26:25;;;;;;;2.07;1.10;;;46.20;34.60;;;;;;4972747;28;20581;-75
2022/08/03 09:29:06;;;;;;;2.87;0.90;;;46.40;34.30;;;;;;4939983;28;20582;-75
2022/08/03 09:31:41;;;;;;;2.50;0.80;;;46.40;33.80;;;;;;4955560;28;20603;-75
2022/08/03 09:34:09;;;;;;;2.20;1.07;;;46.50;33.40;;;;;;4972396;28;20630;-76
2022/08/03 09:36:36;;;;;;;2.63;1.00;;;46.80;33.90;;;;;;4958917;28;20607;-75
2022/08/03 09:39:13;;;;;;;2.70;1.00;;;46.90;33.40;;;;;;4958775;28;20610;-76
2022/08/03 09:41:41;;;;;;;1.90;1.03;;;47.00;32.60;;;;;;4959181;28;20578;-74
2022/08/03 09:44:07;;;;;;;2.23;0.80;;;47.10;32.70;;;;;;4963788;28;20644;-76
2022/08/03 09:46:54;;;;;;;2.70;1.10;;;47.20;32.20;;;;;;4994695;28;20930;-75
2022/08/03 09:49:20;;;;;;;2.40;0.90;;;47.10;32.30;;;;;;4995610;28;20182;-75
2022/08/03 09:51:46;;;;;;;2.47;0.80;;;47.00;31.60;;;;;;4997306;28;20574;-75
2022/08/03 09:54:12;;;;;;;3.80;0.90;;;47.00;31.90;;;;;;4977475;28;20214;-75
2022/08/03 09:56:46;;;;;;;2.07;1.00;;;47.10;32.20;;;;;;4994630;28;20562;-75
2022/08/03 09:59:21;;;;;;;6.07;1.33;;;47.20;32.90;;;;;;4995086;28;20588;-75
2022/08/03 10:01:47;;;;;;;4.43;1.03;;;47.30;32.50;;;;;;4995079;28;20573;-75
2022/08/03 10:04:15;;;;;;;1.90;0.77;;;47.40;32.10;;;;;;4962407;28;20673;-75
2022/08/03 10:06:59;;;;;;;2.57;0.60;;;47.40;30.70;;;;;;4976168;28;20585;-75
2022/08/03 10:09:26;;;;;;;1.60;0.70;;;47.40;30.10;;;;;;4975520;28;20666;-75
2022/08/03 10:11:52;;;;;;;2.00;1.00;;;47.20;30.00;;;;;;4975443;28;20578;-75
2022/08/03 10:14:18;;;;;;;2.17;1.50;;;47.10;30.00;;;;;;4975141;28;20658;-75
2022/08/03 10:16:45;;;;;;;2.03;0.90;;;47.00;30.00;;;;;;4975004;28;20578;-75
2022/08/03 10:19:12;;;;;;;1.50;0.70;;;47.00;30.00;;;;;;4975436;28;20586;-75
2022/08/03 10:21:40;;;;;;;2.30;0.80;;;46.90;30.00;;;;;;4957074;28;21106;-76
2022/08/03 10:24:09;;;;;;;2.03;0.87;;;46.60;29.40;;;;;;4960543;28;20218;-76
2022/08/03 10:26:38;;;;;;;5.27;1.30;;;46.80;29.90;;;;;;4979195;28;20591;-76
2022/08/03 10:29:10;;;;;;;3.67;3.27;;;47.10;30.60;;;;;;4959815;28;20666;-75
2022/08/03 10:31:44;;;;;;;2.60;1.60;;;47.30;29.80;;;;;;4976532;28;20927;-76
2022/08/03 10:34:25;;;;;;;2.63;1.00;;;47.60;29.90;;;;;;4974566;28;20662;-75
2022/08/03 10:36:56;;;;;;;2.60;0.83;;;47.70;29.50;;;;;;4975190;28;20666;-80
2022/08/03 10:39:27;;;;;;;4.00;0.90;;;47.80;29.50;;;;;;4938460;29;20675;-80
2022/08/03 10:41:56;;;;;;;6.47;0.80;;;47.80;29.50;;;;;;4955391;29;20568;-80
2022/08/03 10:44:25;;;;;;;2.13;0.70;;;47.80;29.60;;;;;;4955249;29;20623;-79
2022/08/03 10:46:51;;;;;;;3.13;0.70;;;47.80;29.10;;;;;;4937255;29;20635;-79
2022/08/03 10:49:19;;;;;;;1.60;0.60;;;47.70;28.90;;;;;;4938701;29;20576;-79
2022/08/03 10:51:46;;;;;;;2.37;0.80;;;47.70;29.10;;;;;;4955078;28;20571;-79
2022/08/03 10:57:48;;;;;;;1.67;0.70;;;47.50;29.30;;;;;;4954872;29;21134;-79
2022/08/03 11:00:18;;;;;;;1.50;0.70;;;47.40;29.10;;;;;;4937873;29;20573;-79
2022/08/03 11:03:05;;;;;;;2.80;0.77;;;47.20;28.90;;;;;;4937824;29;20610;-79
2022/08/03 11:05:33;;;;;;;3.20;0.80;;;47.10;28.90;;;;;;4955201;29;20655;-79
2022/08/03 11:08:21;;;;;;;1.50;0.70;;;47.00;29.20;;;;;;4941011;28;20962;-80
2022/08/03 11:10:49;;;;;;;2.27;0.70;;;46.90;28.80;;;;;;4968409;28;20602;-81
2022/08/03 11:13:17;;;;;;;2.33;0.80;;;46.90;29.60;;;;;;4975700;28;21004;-81
2022/08/03 11:15:46;;;;;;;2.83;0.80;;;46.90;29.00;;;;;;4993317;28;20559;-80
2022/08/03 11:18:13;;;;;;;3.57;1.40;;;46.80;29.00;;;;;;4993372;28;20573;-80
2022/08/03 11:20:51;;;;;;;3.60;2.20;;;46.60;28.90;;;;;;4993692;28;20567;-80
2022/08/03 11:23:38;;;;;;;1.60;1.00;;;46.60;29.10;;;;;;4992843;28;20605;-80
2022/08/03 11:26:21;;;;;;;1.50;0.70;;;46.50;28.80;;;;;;4992988;28;20653;-81
2022/08/03 11:28:48;;;;;;;3.10;0.70;;;46.20;28.70;;;;;;4954341;29;20610;-80
2022/08/03 11:31:25;;;;;;;2.20;0.70;;;46.00;29.00;;;;;;4954602;29;20603;-80
2022/08/03 11:34:11;;;;;;;2.70;0.80;;;45.80;29.40;;;;;;4921567;29;20631;-80
2022/08/03 11:37:14;;;;;;;1.70;0.80;;;45.80;29.20;;;;;;4937786;29;20591;-80
2022/08/03 11:39:44;;;;;;;2.63;1.10;;;45.80;29.60;;;;;;4937137;29;20563;-80
2022/08/03 11:42:22;;;;;;;1.63;0.80;;;45.70;29.20;;;;;;4938687;29;20579;-80
2022/08/03 11:44:55;;;;;;;2.17;0.80;;;45.40;29.10;;;;;;4953797;29;20623;-80
2022/08/03 11:47:22;;;;;;;2.90;0.93;;;45.30;29.40;;;;;;4905026;29;20595;-81
2022/08/03 11:49:50;;;;;;;2.40;0.90;;;44.90;29.10;;;;;;4956205;28;20697;-81
2022/08/03 11:52:17;;;;;;;2.20;1.00;;;44.50;29.10;;;;;;4973655;28;20597;-81
2022/08/03 11:54:43;;;;;;;2.90;1.40;;;44.20;29.30;;;;;;4972998;28;21000;-83
2022/08/03 11:57:09;;;;;;;2.57;0.90;;;43.80;29.60;;;;;;4956088;28;20563;-81
2022/08/03 11:59:36;;;;;;;6.53;1.10;;;43.50;29.90;;;;;;4973253;28;20574;-81
2022/08/03 12:02:10;;;;;;;1.70;0.80;;;43.20;30.10;;;;;;4973055;28;20583;-82
2022/08/03 12:05:01;;;;;;;5.43;0.90;;;42.90;30.20;;;;;;4972959;28;20611;-81
2022/08/03 12:07:29;;;;;;;3.57;0.93;;;42.60;30.50;;;;;;4973209;28;20563;-82
2022/08/03 12:10:12;;;;;;;2.03;1.00;;;42.30;30.50;;;;;;4973143;28;20565;-82
2022/08/03 12:12:39;;;;;;;4.37;0.70;;;42.10;31.10;;;;;;4955448;28;20575;-82
2022/08/03 12:15:06;;;;;;;6.77;1.40;;;42.00;31.10;;;;;;4955576;28;20607;-81
2022/08/03 12:17:40;;;;;;;3.40;1.10;;;41.90;31.30;;;;;;4974539;28;20737;-79
2022/08/03 12:20:08;;;;;;;2.67;0.83;;;41.80;31.10;;;;;;4986306;28;20979;-81
2022/08/03 12:22:39;;;;;;;1.80;0.73;;;41.70;31.10;;;;;;4975217;28;20665;-81
2022/08/03 12:25:19;;;;;;;2.23;0.87;;;41.50;31.50;;;;;;4974612;28;20620;-80
2022/08/03 12:27:45;;;;;;;1.90;0.80;;;41.40;31.80;;;;;;4977891;28;20673;-80
2022/08/03 12:30:12;;;;;;;2.23;0.80;;;41.40;31.50;;;;;;4972796;28;20579;-81
2022/08/03 12:32:37;;;;;;;1.60;0.67;;;41.30;31.30;;;;;;4988729;28;20230;-81
2022/08/03 12:35:04;;;;;;;1.60;0.70;;;41.00;30.80;;;;;;4991591;28;20602;-80
2022/08/03 12:37:30;;;;;;;3.33;0.80;;;40.80;30.90;;;;;;4992163;28;20574;-80
2022/08/03 12:40:00;;;;;;;2.27;1.20;;;40.70;31.50;;;;;;4992009;28;20566;-82
2022/08/03 12:42:34;;;;;;;2.67;0.90;;;40.60;31.90;;;;;;4992677;28;20599;-84
2022/08/03 12:45:16;;;;;;;2.80;1.10;;;40.40;32.20;;;;;;4992543;28;21066;-81
2022/08/03 12:47:50;;;;;;;2.83;0.83;;;40.50;32.40;;;;;;4992353;28;20912;-81
2022/08/03 12:50:33;;;;;;;3.07;1.60;;;40.40;32.10;;;;;;4975387;28;21144;-83
2022/08/03 12:53:01;;;;;;;3.00;1.40;;;40.40;32.10;;;;;;4992612;28;21204;-80
2022/08/03 12:55:32;;;;;;;4.53;1.43;;;40.20;31.90;;;;;;4993323;28;20574;-82
2022/08/03 12:58:09;;;;;;;3.63;1.40;;;40.10;31.90;;;;;;4992465;28;21126;-82
2022/08/03 13:00:35;;;;;;;5.87;2.83;;;40.00;32.40;;;;;;4992904;28;20936;-83
2022/08/03 13:03:07;;;;;;;3.57;1.90;;;39.80;32.30;;;;;;4974854;28;20605;-83
2022/08/03 13:05:45;;;;;;;2.27;1.30;;;39.60;32.20;;;;;;4991715;28;20574;-82
2022/08/03 13:08:22;;;;;;;3.57;1.07;;;39.40;32.30;;;;;;4974887;28;21134;-84